Aviation Digital Data Service (ADDS)

Output produced by METARs form (1656 UTC 16 June 2019)
found at http://www.aviationweather.gov/metar/data/
 
Forecast for: AMD
Text: TAF AMD EICK 161200Z 1612/1712 21012KT 9999 SCT012 BKN020
Forecast period: 1200 UTC 16 June 2019 to 1200 UTC 17 June 2019
Forecast type: FROM: standard forecast or significant change
Winds: from the SSW (210 degrees) at 14 MPH (12 knots; 6.2 m/s)
Visibility: 6 or more miles 10+ km)
Ceiling: 2000 feet AGL
Clouds: scattered clouds at 1200 feet AGL
broken clouds at 2000 feet AGL
Weather: no significant weather forecast for this period
Text: TEMPO 1612/1619 23015G26KT 4000 -SHRA BKN004 SCT018CB
Forecast period: 1200 to 1900 UTC 16 June 2019
Forecast type: TEMPORARY: The following changes expected for less than half the time period
Winds: from the SW (230 degrees) at 17 MPH (15 knots; 7.7 m/s)
gusting to 30 MPH (26 knots; 13.4 m/s)
Visibility: 2.49 miles (4.01 km)
Ceiling: 400 feet AGL
Clouds: broken clouds at 400 feet AGL
scattered clouds at 1800 feet AGL
Weather: -SHRA  (light rain showers)
Text: PROB30
Forecast period: 1200 to 1600 UTC 16 June 2019
Forecast type: TEMPORARY: The following changes expected for less than half the time period
Visibility: missing
Ceiling: unknown
Clouds: missing
Weather: SHRA  (rain showers)